Time;durP1;ratioP1;P1;durP2;ratioP2;P2;SDS_P1;SDS_P2;PMS_P1;PMS_P2;Temp;Humidity;BMP_temperature;BMP_pressure;BME280_temperature;BME280_humidity;BME280_pressure;Samples;Min_cycle;Max_cycle;Signal;HPM_P1;HPM_P2
2023/03/14 00:01:10;;;;;;;2.45;1.30;;;;;;;;;;5002731;28;20346;-89
2023/03/14 00:03:38;;;;;;;0.80;0.80;;;;;;;;;;5002952;28;20605;-88
2023/03/14 00:06:09;;;;;;;0.90;0.90;;;;;;;;;;5004650;28;20687;-88
2023/03/14 00:08:38;;;;;;;2.10;1.05;;;;;;;;;;4986534;28;20357;-88
2023/03/14 00:11:07;;;;;;;2.65;1.10;;;;;;;;;;4987139;28;20733;-87
2023/03/14 00:13:35;;;;;;;1.98;0.80;;;;;;;;;;4969412;28;20227;-88
2023/03/14 00:16:05;;;;;;;1.88;1.10;;;;;;;;;;4967308;28;20314;-88
2023/03/14 00:18:34;;;;;;;0.90;0.90;;;;;;;;;;4983765;28;20300;-88
2023/03/14 00:21:03;;;;;;;4.43;0.90;;;;;;;;;;4984180;28;20338;-88
2023/03/14 00:23:34;;;;;;;0.90;0.90;;;;;;;;;;4950538;28;20247;-88
2023/03/14 00:26:04;;;;;;;1.30;1.15;;;;;;;;;;4983587;28;20274;-88
2023/03/14 00:28:32;;;;;;;7.55;1.20;;;;;;;;;;4965691;28;20734;-88
2023/03/14 00:31:00;;;;;;;0.90;0.90;;;;;;;;;;4966632;28;20263;-88
2023/03/14 00:33:29;;;;;;;4.10;0.90;;;;;;;;;;4982412;28;20211;-87
2023/03/14 00:35:59;;;;;;;1.70;1.20;;;;;;;;;;4950534;28;20306;-88
2023/03/14 00:38:28;;;;;;;0.90;0.90;;;;;;;;;;4965592;28;20263;-88
2023/03/14 00:40:58;;;;;;;1.17;1.00;;;;;;;;;;4965598;28;20326;-89
2023/03/14 00:43:28;;;;;;;1.10;1.00;;;;;;;;;;4964941;28;20286;-88
2023/03/14 00:45:57;;;;;;;1.38;1.00;;;;;;;;;;4965311;28;20243;-88
2023/03/14 00:48:28;;;;;;;1.30;0.82;;;;;;;;;;4982912;28;20326;-88
2023/03/14 00:50:57;;;;;;;1.33;1.20;;;;;;;;;;4949658;28;20276;-88
2023/03/14 00:53:25;;;;;;;0.90;0.90;;;;;;;;;;4947832;28;20263;-88
2023/03/14 00:56:03;;;;;;;2.28;2.08;;;;;;;;;;4965612;28;20219;-88
2023/03/14 00:58:32;;;;;;;1.02;1.02;;;;;;;;;;4981648;28;20199;-88
2023/03/14 01:01:00;;;;;;;1.38;1.10;;;;;;;;;;4980852;28;20286;-87
2023/03/14 01:03:29;;;;;;;1.20;1.10;;;;;;;;;;4963225;28;20265;-87
2023/03/14 01:06:07;;;;;;;1.33;1.20;;;;;;;;;;4981230;28;20730;-87
2023/03/14 01:08:37;;;;;;;4.30;1.30;;;;;;;;;;4964474;28;20305;-88
2023/03/14 01:11:08;;;;;;;1.27;1.10;;;;;;;;;;4981383;28;20278;-88
2023/03/14 01:13:38;;;;;;;3.25;1.30;;;;;;;;;;4967063;28;20333;-88
2023/03/14 01:16:07;;;;;;;1.63;1.23;;;;;;;;;;4985013;28;20550;-87
2023/03/14 01:18:39;;;;;;;1.40;0.95;;;;;;;;;;4985515;28;20262;-88
2023/03/14 01:21:11;;;;;;;1.58;1.48;;;;;;;;;;4968734;28;20695;-87
2023/03/14 01:23:40;;;;;;;1.35;1.10;;;;;;;;;;5002290;28;20247;-86
2023/03/14 01:26:11;;;;;;;6.95;1.20;;;;;;;;;;4984189;28;20281;-87
2023/03/14 01:28:40;;;;;;;4.75;1.60;;;;;;;;;;4984580;28;20270;-88
2023/03/14 01:31:08;;;;;;;4.20;1.42;;;;;;;;;;4967769;28;20278;-87
2023/03/14 01:33:36;;;;;;;1.00;1.00;;;;;;;;;;4984637;28;20329;-88
2023/03/14 01:36:05;;;;;;;1.35;1.27;;;;;;;;;;4952044;28;20214;-88
2023/03/14 01:38:35;;;;;;;2.78;1.40;;;;;;;;;;4968541;28;20346;-88
2023/03/14 01:41:03;;;;;;;2.20;1.30;;;;;;;;;;5001286;28;20685;-87
2023/03/14 01:43:33;;;;;;;2.97;1.75;;;;;;;;;;4984454;28;20258;-87
2023/03/14 01:46:18;;;;;;;3.30;1.50;;;;;;;;;;4984159;28;20278;-88
2023/03/14 01:48:49;;;;;;;2.80;1.17;;;;;;;;;;5001252;28;20238;-87
2023/03/14 01:51:18;;;;;;;1.70;1.30;;;;;;;;;;4967245;28;20527;-88
2023/03/14 01:53:48;;;;;;;4.50;1.55;;;;;;;;;;5000513;28;20285;-88
2023/03/14 01:56:17;;;;;;;2.10;1.55;;;;;;;;;;4967231;28;20202;-88
2023/03/14 01:58:49;;;;;;;1.70;1.30;;;;;;;;;;4967191;28;20199;-88
2023/03/14 02:01:18;;;;;;;1.65;1.10;;;;;;;;;;4968002;28;20266;-89
2023/03/14 02:03:48;;;;;;;2.80;1.30;;;;;;;;;;4982737;28;20179;-88
2023/03/14 02:06:19;;;;;;;1.63;1.20;;;;;;;;;;4983746;28;20262;-87
2023/03/14 02:08:49;;;;;;;2.08;1.20;;;;;;;;;;4967556;28;20222;-87
2023/03/14 02:11:21;;;;;;;1.95;1.05;;;;;;;;;;4964263;28;20243;-87
2023/03/14 02:14:05;;;;;;;1.63;1.45;;;;;;;;;;4980882;28;20163;-87
2023/03/14 02:16:52;;;;;;;2.28;1.45;;;;;;;;;;4981952;28;20267;-88
2023/03/14 02:19:50;;;;;;;3.13;1.45;;;;;;;;;;4964903;28;20180;-87
2023/03/14 02:22:34;;;;;;;1.45;1.15;;;;;;;;;;4981094;28;20306;-87
2023/03/14 02:25:09;;;;;;;4.95;1.70;;;;;;;;;;4980763;28;20270;-88
2023/03/14 02:27:40;;;;;;;3.33;1.60;;;;;;;;;;4964828;28;20583;-87
2023/03/14 02:30:11;;;;;;;1.42;1.33;;;;;;;;;;4981945;28;20194;-87
2023/03/14 02:32:43;;;;;;;1.80;1.20;;;;;;;;;;4966223;28;20262;-88
2023/03/14 02:35:13;;;;;;;4.50;1.55;;;;;;;;;;4982966;28;20314;-88
2023/03/14 02:37:43;;;;;;;3.38;1.30;;;;;;;;;;4965861;28;20231;-88
2023/03/14 02:40:13;;;;;;;1.20;1.10;;;;;;;;;;4968857;28;20262;-88
2023/03/14 02:42:44;;;;;;;2.30;1.50;;;;;;;;;;4969019;28;20246;-88
2023/03/14 02:45:36;;;;;;;2.65;1.40;;;;;;;;;;4964815;28;20251;-86
2023/03/14 02:48:07;;;;;;;1.65;1.50;;;;;;;;;;4984422;28;20278;-87
2023/03/14 02:50:39;;;;;;;3.78;1.20;;;;;;;;;;4983727;28;20678;-88
2023/03/14 02:53:07;;;;;;;1.80;1.40;;;;;;;;;;4984284;28;20243;-88
2023/03/14 02:55:36;;;;;;;5.88;1.45;;;;;;;;;;4967755;28;20254;-88
2023/03/14 02:58:12;;;;;;;1.88;1.00;;;;;;;;;;4984246;28;20313;-88
2023/03/14 03:00:41;;;;;;;1.35;1.20;;;;;;;;;;4983673;28;20246;-87
2023/03/14 03:03:11;;;;;;;1.50;1.38;;;;;;;;;;4985779;28;20221;-87
2023/03/14 03:05:39;;;;;;;3.17;1.38;;;;;;;;;;4969380;28;20690;-88
2023/03/14 03:08:08;;;;;;;1.40;1.30;;;;;;;;;;4987932;28;20301;-88
2023/03/14 03:10:37;;;;;;;1.40;1.30;;;;;;;;;;4986039;28;20282;-88
2023/03/14 03:13:05;;;;;;;1.60;1.33;;;;;;;;;;4970823;28;20234;-88
2023/03/14 03:15:35;;;;;;;1.40;1.30;;;;;;;;;;4987672;28;20238;-88
2023/03/14 03:18:04;;;;;;;4.07;1.15;;;;;;;;;;4988251;28;20230;-87
2023/03/14 03:20:32;;;;;;;2.60;1.30;;;;;;;;;;4968613;28;20286;-88
2023/03/14 03:23:01;;;;;;;1.77;1.10;;;;;;;;;;4987954;28;20753;-88
2023/03/14 03:25:30;;;;;;;1.55;1.20;;;;;;;;;;5002523;28;20635;-88
2023/03/14 03:27:59;;;;;;;2.03;1.90;;;;;;;;;;4985841;28;20262;-88
2023/03/14 03:30:27;;;;;;;3.05;1.50;;;;;;;;;;4970545;28;20277;-88
2023/03/14 03:32:57;;;;;;;6.00;5.18;;;;;;;;;;4987615;28;20282;-88
2023/03/14 03:35:25;;;;;;;3.92;3.45;;;;;;;;;;5004361;28;20263;-89
2023/03/14 03:37:58;;;;;;;2.80;2.25;;;;;;;;;;4987563;28;20297;-86
2023/03/14 03:40:30;;;;;;;1.33;1.23;;;;;;;;;;4987260;28;20251;-87
2023/03/14 03:42:59;;;;;;;6.53;2.15;;;;;;;;;;4970914;28;20265;-88
2023/03/14 03:45:27;;;;;;;2.75;1.40;;;;;;;;;;4987554;28;20686;-88
2023/03/14 03:47:59;;;;;;;2.67;1.30;;;;;;;;;;4971492;28;20286;-87
2023/03/14 03:50:27;;;;;;;2.55;1.30;;;;;;;;;;4988166;28;20199;-87
2023/03/14 03:52:55;;;;;;;6.95;1.27;;;;;;;;;;4987821;28;20250;-87
2023/03/14 03:55:25;;;;;;;1.48;1.38;;;;;;;;;;4989229;28;20244;-87
2023/03/14 03:57:54;;;;;;;2.20;1.25;;;;;;;;;;4972127;28;20297;-87
2023/03/14 04:00:22;;;;;;;2.20;1.58;;;;;;;;;;5004335;28;20285;-88
2023/03/14 04:02:50;;;;;;;1.95;1.10;;;;;;;;;;4985272;28;20277;-87
2023/03/14 04:05:22;;;;;;;3.65;1.00;;;;;;;;;;4970395;28;20234;-87
2023/03/14 04:07:56;;;;;;;1.10;1.00;;;;;;;;;;4970968;28;20277;-87
2023/03/14 04:10:28;;;;;;;3.58;0.90;;;;;;;;;;4971613;28;20242;-87
2023/03/14 04:13:06;;;;;;;3.08;1.45;;;;;;;;;;4988421;28;20305;-87
2023/03/14 04:15:36;;;;;;;3.17;1.40;;;;;;;;;;4988803;28;20258;-87
2023/03/14 04:18:10;;;;;;;3.17;1.20;;;;;;;;;;4975823;28;20278;-86
2023/03/14 04:20:40;;;;;;;1.52;1.40;;;;;;;;;;4986632;28;20230;-87
2023/03/14 04:23:10;;;;;;;4.22;1.33;;;;;;;;;;5003214;28;20657;-88
2023/03/14 04:25:38;;;;;;;5.75;1.13;;;;;;;;;;5015542;28;20230;-87
2023/03/14 04:28:07;;;;;;;1.27;1.10;;;;;;;;;;4971489;28;20258;-87
2023/03/14 04:30:36;;;;;;;2.40;0.95;;;;;;;;;;4987566;28;20277;-87
2023/03/14 04:33:12;;;;;;;2.83;1.17;;;;;;;;;;4987603;28;20310;-87
2023/03/14 04:35:49;;;;;;;2.47;1.25;;;;;;;;;;4970968;28;20325;-87
2023/03/14 04:38:18;;;;;;;4.60;0.85;;;;;;;;;;4970920;28;20297;-87
2023/03/14 04:40:48;;;;;;;3.55;1.52;;;;;;;;;;4970678;28;20250;-87
2023/03/14 04:43:18;;;;;;;1.40;1.10;;;;;;;;;;4971167;28;20278;-87
2023/03/14 04:45:56;;;;;;;2.78;1.45;;;;;;;;;;4970620;28;20262;-86
2023/03/14 04:48:25;;;;;;;3.70;1.45;;;;;;;;;;4986871;28;20250;-87
2023/03/14 04:50:55;;;;;;;4.25;1.13;;;;;;;;;;4986953;28;20741;-86
2023/03/14 04:53:24;;;;;;;2.00;1.35;;;;;;;;;;5003600;28;20333;-85
2023/03/14 04:55:56;;;;;;;2.30;1.00;;;;;;;;;;4985932;28;20278;-88
2023/03/14 04:58:26;;;;;;;1.90;1.38;;;;;;;;;;4985173;28;20214;-86
2023/03/14 05:00:57;;;;;;;6.18;1.17;;;;;;;;;;4985480;28;20276;-86
2023/03/14 05:03:57;;;;;;;2.83;0.95;;;;;;;;;;4960641;28;20274;-86
2023/03/14 05:06:46;;;;;;;1.65;1.10;;;;;;;;;;4985841;28;20266;-88
2023/03/14 05:09:27;;;;;;;5.53;1.60;;;;;;;;;;5004186;28;20273;-87
2023/03/14 05:12:25;;;;;;;3.17;1.63;;;;;;;;;;4982852;28;20321;-88
2023/03/14 05:15:08;;;;;;;2.08;0.80;;;;;;;;;;4969396;28;20289;-88
2023/03/14 05:17:55;;;;;;;2.55;0.80;;;;;;;;;;4984854;28;20680;-88
2023/03/14 05:20:33;;;;;;;3.08;1.08;;;;;;;;;;4968871;28;20321;-87
2023/03/14 05:23:25;;;;;;;1.70;0.80;;;;;;;;;;4967135;28;20383;-88
2023/03/14 05:26:12;;;;;;;1.90;1.20;;;;;;;;;;4984903;28;20679;-88
2023/03/14 05:28:48;;;;;;;2.72;1.02;;;;;;;;;;4985721;28;20614;-87
2023/03/14 05:31:35;;;;;;;1.20;1.02;;;;;;;;;;5002228;28;20234;-88
2023/03/14 05:34:28;;;;;;;2.38;1.40;;;;;;;;;;4970647;28;20278;-88
2023/03/14 05:37:08;;;;;;;2.65;1.05;;;;;;;;;;4984660;28;20273;-87
2023/03/14 05:39:57;;;;;;;5.63;1.30;;;;;;;;;;4971216;28;20276;-88
2023/03/14 05:42:41;;;;;;;1.67;1.10;;;;;;;;;;4970469;28;20275;-88
2023/03/14 05:45:10;;;;;;;8.00;1.33;;;;;;;;;;5004806;28;20266;-88
2023/03/14 05:48:02;;;;;;;4.80;1.63;;;;;;;;;;4994530;28;20266;-88
2023/03/14 05:50:41;;;;;;;2.90;1.02;;;;;;;;;;4971661;28;20318;-87
2023/03/14 05:53:30;;;;;;;4.63;1.48;;;;;;;;;;4983761;28;20187;-87
2023/03/14 05:56:29;;;;;;;3.92;1.00;;;;;;;;;;4912305;28;20288;-88
2023/03/14 05:59:08;;;;;;;3.75;1.20;;;;;;;;;;4985565;28;20301;-87
2023/03/14 06:01:56;;;;;;;2.03;1.15;;;;;;;;;;4975193;28;20290;-88
2023/03/14 06:04:28;;;;;;;1.85;0.90;;;;;;;;;;4978263;28;20282;-89
2023/03/14 06:07:00;;;;;;;2.75;1.10;;;;;;;;;;4986425;28;20317;-85
2023/03/14 06:09:32;;;;;;;2.90;1.17;;;;;;;;;;4986995;28;20262;-91
2023/03/14 06:12:05;;;;;;;2.55;1.27;;;;;;;;;;4963224;28;20309;-89
2023/03/14 06:14:39;;;;;;;2.05;1.15;;;;;;;;;;4964117;28;20255;-89
2023/03/14 06:17:09;;;;;;;3.67;1.20;;;;;;;;;;4950850;28;20204;-87
2023/03/14 06:19:45;;;;;;;5.32;1.00;;;;;;;;;;4966049;28;20286;-90
2023/03/14 06:22:15;;;;;;;1.67;0.95;;;;;;;;;;4954815;28;20274;-90
2023/03/14 06:24:44;;;;;;;5.68;1.85;;;;;;;;;;4966496;28;20787;-88
2023/03/14 06:27:14;;;;;;;1.45;0.90;;;;;;;;;;4948010;28;20199;-88
2023/03/14 06:29:43;;;;;;;3.58;0.98;;;;;;;;;;4965861;28;20286;-89
2023/03/14 06:32:11;;;;;;;2.95;1.33;;;;;;;;;;4982654;28;20624;-89
2023/03/14 06:34:44;;;;;;;3.03;0.93;;;;;;;;;;4965078;28;20262;-90
2023/03/14 06:37:13;;;;;;;2.42;0.95;;;;;;;;;;4966252;28;20300;-88
2023/03/14 06:39:44;;;;;;;1.65;0.90;;;;;;;;;;4969455;28;20215;-89
2023/03/14 06:42:26;;;;;;;4.35;1.10;;;;;;;;;;4954308;28;20249;-88
2023/03/14 06:44:56;;;;;;;4.60;1.35;;;;;;;;;;4954949;28;20242;-91
2023/03/14 06:47:27;;;;;;;1.52;0.80;;;;;;;;;;4954931;28;20195;-87
2023/03/14 06:49:56;;;;;;;4.22;1.23;;;;;;;;;;4954498;28;20255;-88
2023/03/14 06:52:29;;;;;;;0.80;0.70;;;;;;;;;;4956943;28;20228;-90
2023/03/14 06:54:59;;;;;;;2.05;0.95;;;;;;;;;;4971908;28;20174;-89
2023/03/14 06:57:39;;;;;;;1.27;0.93;;;;;;;;;;4971824;28;20164;-89
2023/03/14 07:00:15;;;;;;;4.40;1.17;;;;;;;;;;4954497;28;20286;-90
2023/03/14 07:02:49;;;;;;;0.90;0.90;;;;;;;;;;4953403;28;20255;-90
2023/03/14 07:05:35;;;;;;;2.80;0.93;;;;;;;;;;4954379;28;20190;-89
2023/03/14 07:08:19;;;;;;;3.85;1.10;;;;;;;;;;4955640;28;20318;-90
2023/03/14 07:10:51;;;;;;;1.20;0.90;;;;;;;;;;4984781;28;20278;-90
2023/03/14 07:13:22;;;;;;;2.67;1.20;;;;;;;;;;4966398;28;20306;-86
2023/03/14 07:15:56;;;;;;;2.17;0.88;;;;;;;;;;4988059;28;20205;-88
2023/03/14 07:18:26;;;;;;;2.10;1.35;;;;;;;;;;4987608;28;20285;-88
2023/03/14 07:20:54;;;;;;;2.63;1.27;;;;;;;;;;4987038;28;20182;-89
2023/03/14 07:23:25;;;;;;;1.00;0.95;;;;;;;;;;5001841;28;20246;-89
2023/03/14 07:25:55;;;;;;;3.45;1.08;;;;;;;;;;4987201;28;20226;-88
2023/03/14 07:28:28;;;;;;;3.05;1.00;;;;;;;;;;4987937;28;20230;-87
2023/03/14 07:31:03;;;;;;;2.38;0.90;;;;;;;;;;4970439;28;20230;-86
2023/03/14 07:33:35;;;;;;;3.53;1.15;;;;;;;;;;4987531;28;20259;-87
2023/03/14 07:36:04;;;;;;;4.75;0.90;;;;;;;;;;4984937;28;20726;-87
2023/03/14 07:38:33;;;;;;;2.55;0.90;;;;;;;;;;5004470;28;20266;-86
2023/03/14 07:41:16;;;;;;;2.42;1.13;;;;;;;;;;4985135;28;20187;-86
2023/03/14 07:44:12;;;;;;;2.15;0.95;;;;;;;;;;4982902;28;20178;-86
2023/03/14 07:46:40;;;;;;;3.92;0.75;;;;;;;;;;4983531;28;20234;-86
2023/03/14 07:49:08;;;;;;;0.70;0.70;;;;;;;;;;4997559;28;20289;-86
2023/03/14 07:51:36;;;;;;;2.50;1.20;;;;;;;;;;5000751;28;20207;-86
2023/03/14 07:54:04;;;;;;;1.05;0.80;;;;;;;;;;4979317;28;20203;-86
2023/03/14 07:56:32;;;;;;;1.58;0.90;;;;;;;;;;4984459;28;20274;-87
2023/03/14 07:59:01;;;;;;;0.70;0.65;;;;;;;;;;5002863;28;20227;-87
2023/03/14 08:01:33;;;;;;;1.48;0.88;;;;;;;;;;4984920;28;20737;-87
2023/03/14 08:04:01;;;;;;;1.73;0.73;;;;;;;;;;4984257;28;20211;-88
2023/03/14 08:06:30;;;;;;;0.75;0.70;;;;;;;;;;4969662;28;20664;-88
2023/03/14 08:08:59;;;;;;;2.15;0.80;;;;;;;;;;4974261;28;20334;-88
2023/03/14 08:11:27;;;;;;;1.35;0.70;;;;;;;;;;4985298;28;20285;-88
2023/03/14 08:13:55;;;;;;;1.90;0.90;;;;;;;;;;4964281;28;20195;-86
2023/03/14 08:16:23;;;;;;;2.25;0.70;;;;;;;;;;4989732;28;20254;-86
2023/03/14 08:18:53;;;;;;;1.40;0.75;;;;;;;;;;4990288;28;20663;-86
2023/03/14 08:21:21;;;;;;;2.03;0.82;;;;;;;;;;4969030;28;20290;-87
2023/03/14 08:23:52;;;;;;;3.75;0.70;;;;;;;;;;4966336;28;20195;-86
2023/03/14 08:26:21;;;;;;;1.73;0.90;;;;;;;;;;4965351;28;20201;-86
2023/03/14 08:28:50;;;;;;;3.60;1.10;;;;;;;;;;4982539;28;20282;-87
2023/03/14 08:31:18;;;;;;;0.63;0.60;;;;;;;;;;4964624;28;20286;-86
2023/03/14 08:33:46;;;;;;;1.67;0.93;;;;;;;;;;4984343;28;20234;-87
2023/03/14 08:36:16;;;;;;;1.05;0.60;;;;;;;;;;4984133;28;20289;-86
2023/03/14 08:38:45;;;;;;;4.20;1.33;;;;;;;;;;4985894;28;20242;-86
2023/03/14 08:41:14;;;;;;;1.73;0.93;;;;;;;;;;4984682;28;20278;-87
2023/03/14 08:43:43;;;;;;;0.68;0.63;;;;;;;;;;4983396;28;20211;-86
2023/03/14 08:46:11;;;;;;;1.13;0.60;;;;;;;;;;4983237;28;20235;-87
2023/03/14 08:48:40;;;;;;;2.03;0.80;;;;;;;;;;5001092;28;20282;-87
2023/03/14 08:51:10;;;;;;;1.02;0.70;;;;;;;;;;4984869;28;20226;-87
2023/03/14 08:53:42;;;;;;;1.13;1.00;;;;;;;;;;4989414;28;20199;-88
2023/03/14 08:56:11;;;;;;;1.42;0.60;;;;;;;;;;5007376;28;20306;-88
2023/03/14 08:58:41;;;;;;;0.70;0.70;;;;;;;;;;4973043;28;20263;-88
2023/03/14 09:01:18;;;;;;;0.65;0.65;;;;;;;;;;4986139;28;20678;-88
2023/03/14 09:03:48;;;;;;;4.80;1.45;;;;;;;;;;4985385;28;20201;-88
2023/03/14 09:06:19;;;;;;;1.02;0.60;;;;;;;;;;4987121;28;20254;-88
2023/03/14 09:08:48;;;;;;;0.70;0.60;;;;;;;;;;4987158;28;20330;-88
2023/03/14 09:11:18;;;;;;;0.93;0.50;;;;;;;;;;4968966;28;20282;-89
2023/03/14 09:13:48;;;;;;;2.65;0.82;;;;;;;;;;4949946;28;20318;-89
2023/03/14 09:16:16;;;;;;;1.05;0.80;;;;;;;;;;4950632;29;20196;-89
2023/03/14 09:18:46;;;;;;;1.80;0.80;;;;;;;;;;4966149;28;20299;-88
2023/03/14 09:21:14;;;;;;;1.60;0.75;;;;;;;;;;4964093;28;20278;-88
2023/03/14 09:23:42;;;;;;;1.92;0.98;;;;;;;;;;4949762;28;20290;-89
2023/03/14 09:26:15;;;;;;;0.73;0.70;;;;;;;;;;4982552;28;20187;-86
2023/03/14 09:28:44;;;;;;;1.13;0.70;;;;;;;;;;4948104;28;20192;-86
2023/03/14 09:31:16;;;;;;;0.75;0.68;;;;;;;;;;4984063;28;20274;-86
2023/03/14 09:33:47;;;;;;;0.85;0.70;;;;;;;;;;4949646;28;20203;-86
2023/03/14 09:36:15;;;;;;;1.17;0.70;;;;;;;;;;4965211;28;20274;-85
2023/03/14 09:38:43;;;;;;;1.00;0.90;;;;;;;;;;4980428;28;20307;-86
2023/03/14 09:41:17;;;;;;;1.73;0.73;;;;;;;;;;4948438;28;20302;-86
2023/03/14 09:43:47;;;;;;;0.50;0.50;;;;;;;;;;4945670;28;20698;-86
2023/03/14 09:46:15;;;;;;;0.70;0.70;;;;;;;;;;4948059;28;20259;-87
2023/03/14 09:48:46;;;;;;;0.60;0.50;;;;;;;;;;4965867;28;20268;-86
2023/03/14 09:51:15;;;;;;;0.98;0.60;;;;;;;;;;4966237;28;20311;-85
2023/03/14 09:53:45;;;;;;;0.85;0.85;;;;;;;;;;4980800;28;20306;-86
2023/03/14 09:56:18;;;;;;;0.60;0.60;;;;;;;;;;4963560;28;20290;-83
2023/03/14 09:58:49;;;;;;;2.80;1.38;;;;;;;;;;4964370;28;20742;-86
2023/03/14 10:01:20;;;;;;;1.10;0.60;;;;;;;;;;4964544;28;20342;-86
2023/03/14 10:03:48;;;;;;;0.70;0.63;;;;;;;;;;4965023;28;20271;-86
2023/03/14 10:06:17;;;;;;;0.65;0.60;;;;;;;;;;4983855;28;20256;-87
2023/03/14 10:08:46;;;;;;;1.00;0.80;;;;;;;;;;4984218;28;20258;-86
2023/03/14 10:11:18;;;;;;;1.00;0.90;;;;;;;;;;4974128;28;20203;-87
2023/03/14 10:13:51;;;;;;;0.73;0.63;;;;;;;;;;4998225;28;20230;-87
2023/03/14 10:16:29;;;;;;;2.15;0.70;;;;;;;;;;4983432;28;20202;-87
2023/03/14 10:19:03;;;;;;;0.80;0.80;;;;;;;;;;4979575;28;20218;-86
2023/03/14 10:21:33;;;;;;;1.23;0.80;;;;;;;;;;4985244;28;20357;-87
2023/03/14 10:24:11;;;;;;;0.60;0.60;;;;;;;;;;4968583;28;20710;-86
2023/03/14 10:26:44;;;;;;;2.65;1.27;;;;;;;;;;4984083;28;20598;-87
2023/03/14 10:29:15;;;;;;;1.15;0.60;;;;;;;;;;4984361;28;20640;-84
2023/03/14 10:31:51;;;;;;;1.23;0.73;;;;;;;;;;4981908;28;20193;-85
2023/03/14 10:34:23;;;;;;;0.90;0.70;;;;;;;;;;4994982;28;20289;-87
2023/03/14 10:36:59;;;;;;;1.63;0.77;;;;;;;;;;4955663;28;20322;-88
2023/03/14 10:39:44;;;;;;;0.73;0.73;;;;;;;;;;4966674;28;20709;-87
2023/03/14 10:42:17;;;;;;;0.95;0.80;;;;;;;;;;5001561;28;20285;-86
2023/03/14 10:44:46;;;;;;;1.55;0.70;;;;;;;;;;4968574;28;20250;-86
2023/03/14 10:47:21;;;;;;;2.65;0.82;;;;;;;;;;4948102;28;20715;-86
2023/03/14 10:49:49;;;;;;;0.70;0.70;;;;;;;;;;4983670;28;20277;-86
2023/03/14 10:52:24;;;;;;;1.00;0.88;;;;;;;;;;4979426;28;20297;-88
2023/03/14 10:54:56;;;;;;;1.52;0.70;;;;;;;;;;4967074;28;20217;-86
2023/03/14 10:57:28;;;;;;;2.05;0.90;;;;;;;;;;4980496;28;20298;-88
2023/03/14 11:00:07;;;;;;;0.70;0.70;;;;;;;;;;4961812;28;20254;-88
2023/03/14 11:02:43;;;;;;;2.55;0.70;;;;;;;;;;4964644;28;20223;-89
2023/03/14 11:05:26;;;;;;;0.88;0.60;;;;;;;;;;4983212;28;20274;-88
2023/03/14 11:07:56;;;;;;;0.80;0.70;;;;;;;;;;4974695;28;20309;-88
2023/03/14 11:10:26;;;;;;;1.33;0.70;;;;;;;;;;4982347;28;20388;-88
2023/03/14 11:13:06;;;;;;;0.80;0.80;;;;;;;;;;4963958;28;20309;-88
2023/03/14 11:15:36;;;;;;;0.70;0.70;;;;;;;;;;4950985;28;20318;-85
2023/03/14 11:18:14;;;;;;;0.65;0.65;;;;;;;;;;4975279;28;20609;-85
2023/03/14 11:20:46;;;;;;;1.83;0.80;;;;;;;;;;4950677;28;20313;-88
2023/03/14 11:23:21;;;;;;;2.63;2.05;;;;;;;;;;4968010;28;20281;-88
2023/03/14 11:29:15;;;;;;;1.20;1.10;;;;;;;;;;4972296;28;20630;-87
2023/03/14 11:31:49;;;;;;;1.00;1.00;;;;;;;;;;4982321;28;20187;-87
2023/03/14 11:34:18;;;;;;;1.92;0.80;;;;;;;;;;4969548;28;20271;-87
2023/03/14 11:36:50;;;;;;;0.80;0.80;;;;;;;;;;4977511;28;20210;-86
2023/03/14 11:39:19;;;;;;;1.13;1.02;;;;;;;;;;4982419;28;20179;-88
2023/03/14 11:41:50;;;;;;;0.80;0.80;;;;;;;;;;4959522;28;20268;-90
2023/03/14 11:44:24;;;;;;;1.10;1.00;;;;;;;;;;4994336;28;20175;-89
2023/03/14 11:46:55;;;;;;;1.15;1.02;;;;;;;;;;4976141;28;20238;-89
2023/03/14 11:49:32;;;;;;;1.02;1.02;;;;;;;;;;4975767;28;20630;-90
2023/03/14 11:52:22;;;;;;;1.50;1.08;;;;;;;;;;4987724;28;20183;-89
2023/03/14 11:55:01;;;;;;;1.10;1.00;;;;;;;;;;4953716;28;20227;-89
2023/03/14 11:57:32;;;;;;;0.95;0.90;;;;;;;;;;4969674;28;20330;-89
2023/03/14 12:00:16;;;;;;;1.08;1.08;;;;;;;;;;4978029;28;20286;-89
2023/03/14 12:02:52;;;;;;;1.20;1.10;;;;;;;;;;4960864;28;20291;-89
2023/03/14 12:05:49;;;;;;;1.65;1.08;;;;;;;;;;4971303;28;20179;-89
2023/03/14 12:08:44;;;;;;;1.15;0.90;;;;;;;;;;4961105;28;20278;-88
2023/03/14 12:11:29;;;;;;;1.40;1.30;;;;;;;;;;4954283;28;20267;-89
2023/03/14 12:14:00;;;;;;;0.90;0.90;;;;;;;;;;4947780;29;20627;-89
2023/03/14 12:16:38;;;;;;;6.57;1.35;;;;;;;;;;4976882;28;20686;-89
2023/03/14 12:19:31;;;;;;;3.20;1.63;;;;;;;;;;4966633;28;20259;-90
2023/03/14 12:26:28;;;;;;;2.28;1.17;;;;;;;;;;4943602;28;20198;-90
2023/03/14 12:32:49;;;;;;;1.27;1.23;;;;;;;;;;4966169;28;20290;-91
2023/03/14 12:36:17;;;;;;;1.63;1.50;;;;;;;;;;4979752;28;20302;-89
2023/03/14 12:39:47;;;;;;;2.13;1.50;;;;;;;;;;4978684;28;20222;-89
2023/03/14 12:42:53;;;;;;;2.58;2.38;;;;;;;;;;4959056;28;20224;-89
2023/03/14 12:49:15;;;;;;;4.65;3.72;;;;;;;;;;4946986;28;20198;-88
2023/03/14 12:54:39;;;;;;;13.43;12.40;;;;;;;;;;4960454;28;20311;-90
2023/03/14 12:57:30;;;;;;;10.70;10.10;;;;;;;;;;4946356;28;20226;-90
2023/03/14 13:04:17;;;;;;;19.95;18.05;;;;;;;;;;4971294;28;20264;-90
2023/03/14 13:07:07;;;;;;;7.30;6.90;;;;;;;;;;4979238;28;20183;-88
2023/03/14 13:16:24;;;;;;;9.02;8.63;;;;;;;;;;4957323;28;20211;-88
2023/03/14 13:19:05;;;;;;;8.85;8.52;;;;;;;;;;4967139;28;20195;-86
2023/03/14 13:21:41;;;;;;;10.18;9.65;;;;;;;;;;4962684;28;20301;-88
2023/03/14 13:27:20;;;;;;;10.50;9.88;;;;;;;;;;4951658;28;20195;-88
2023/03/14 13:29:50;;;;;;;10.73;10.13;;;;;;;;;;4966158;28;20259;-87
2023/03/14 13:32:28;;;;;;;13.57;12.57;;;;;;;;;;4950860;28;20291;-87
2023/03/14 13:35:01;;;;;;;19.75;17.70;;;;;;;;;;4947651;28;20188;-89
2023/03/14 13:37:32;;;;;;;15.43;14.32;;;;;;;;;;4964867;28;20291;-87
2023/03/14 13:40:00;;;;;;;11.85;11.18;;;;;;;;;;4964980;28;20287;-87
2023/03/14 13:42:32;;;;;;;11.75;11.25;;;;;;;;;;4966282;28;20203;-87
2023/03/14 13:45:15;;;;;;;11.07;10.57;;;;;;;;;;4965013;28;20622;-89
2023/03/14 13:47:51;;;;;;;10.02;9.73;;;;;;;;;;4946279;29;20203;-85
2023/03/14 13:50:22;;;;;;;10.27;9.88;;;;;;;;;;4987494;28;20183;-87
2023/03/14 13:52:58;;;;;;;10.38;10.00;;;;;;;;;;4987138;28;20191;-87
2023/03/14 13:55:27;;;;;;;10.88;10.48;;;;;;;;;;4940043;29;20259;-87
2023/03/14 13:58:03;;;;;;;11.97;11.47;;;;;;;;;;4962943;28;20215;-89
2023/03/14 14:00:34;;;;;;;11.07;10.67;;;;;;;;;;4964546;28;20745;-87
2023/03/14 14:03:03;;;;;;;12.30;11.77;;;;;;;;;;4996157;28;20745;-86
2023/03/14 14:05:33;;;;;;;12.00;11.50;;;;;;;;;;4965980;28;20708;-86
2023/03/14 14:08:06;;;;;;;12.87;12.23;;;;;;;;;;4961049;28;20747;-87
2023/03/14 14:10:36;;;;;;;12.43;11.93;;;;;;;;;;4958436;28;21343;-86
2023/03/14 14:13:07;;;;;;;13.13;12.27;;;;;;;;;;4959921;28;20701;-86
2023/03/14 14:15:42;;;;;;;12.20;11.70;;;;;;;;;;4950466;28;20676;-86
2023/03/14 14:18:12;;;;;;;12.73;12.23;;;;;;;;;;4950662;28;20685;-88
2023/03/14 14:20:48;;;;;;;12.80;12.20;;;;;;;;;;4986096;28;20770;-90
2023/03/14 14:23:25;;;;;;;12.73;12.20;;;;;;;;;;4983749;28;20753;-89
2023/03/14 14:29:04;;;;;;;12.10;11.60;;;;;;;;;;4941436;28;21271;-88
2023/03/14 14:31:32;;;;;;;13.03;12.13;;;;;;;;;;4972459;28;20705;-88
2023/03/14 14:34:02;;;;;;;12.53;12.03;;;;;;;;;;4984945;28;21095;-88
2023/03/14 14:36:34;;;;;;;12.00;11.60;;;;;;;;;;4958336;28;20686;-88
2023/03/14 14:39:18;;;;;;;12.90;12.07;;;;;;;;;;4974634;28;20191;-88
2023/03/14 14:41:49;;;;;;;12.90;12.20;;;;;;;;;;4991009;28;20616;-90
2023/03/14 14:44:22;;;;;;;12.63;11.98;;;;;;;;;;4954656;28;20266;-86
2023/03/14 14:46:50;;;;;;;12.65;11.95;;;;;;;;;;4952848;29;20224;-87
2023/03/14 14:49:20;;;;;;;12.35;11.73;;;;;;;;;;4968450;28;20203;-89
2023/03/14 14:51:50;;;;;;;12.15;11.55;;;;;;;;;;4963017;28;20282;-89
2023/03/14 14:54:22;;;;;;;12.52;11.85;;;;;;;;;;4974921;28;20182;-87
2023/03/14 14:56:55;;;;;;;12.55;12.00;;;;;;;;;;4947941;28;20259;-89
2023/03/14 14:59:26;;;;;;;12.73;12.23;;;;;;;;;;4989019;28;20251;-88
2023/03/14 15:01:59;;;;;;;12.40;11.60;;;;;;;;;;4954863;28;20916;-87
2023/03/14 15:04:30;;;;;;;12.90;12.20;;;;;;;;;;4984051;28;20283;-89
2023/03/14 15:06:58;;;;;;;12.50;11.90;;;;;;;;;;4976998;28;20310;-88
2023/03/14 15:09:29;;;;;;;12.52;11.90;;;;;;;;;;4958903;28;20196;-87
2023/03/14 15:11:58;;;;;;;12.65;12.00;;;;;;;;;;4977222;28;20255;-88
2023/03/14 15:14:27;;;;;;;12.03;11.63;;;;;;;;;;4971443;28;20790;-87
2023/03/14 15:16:55;;;;;;;12.20;11.70;;;;;;;;;;4975090;28;20726;-87
2023/03/14 15:19:26;;;;;;;12.70;12.00;;;;;;;;;;4983606;28;20681;-85
2023/03/14 15:21:54;;;;;;;12.17;11.50;;;;;;;;;;4972444;28;21163;-84
2023/03/14 15:24:24;;;;;;;13.13;12.30;;;;;;;;;;4986841;28;20704;-84
2023/03/14 15:26:55;;;;;;;12.60;12.07;;;;;;;;;;4984877;28;20688;-85
2023/03/14 15:29:24;;;;;;;15.10;13.90;;;;;;;;;;4970932;28;20629;-85
2023/03/14 15:32:19;;;;;;;13.43;12.82;;;;;;;;;;4955078;28;20195;-89
2023/03/14 15:35:02;;;;;;;13.35;12.35;;;;;;;;;;4986776;28;20198;-86
2023/03/14 15:37:30;;;;;;;12.90;12.10;;;;;;;;;;4988783;28;20638;-87
2023/03/14 15:40:00;;;;;;;12.40;11.80;;;;;;;;;;4986873;28;20337;-86
2023/03/14 15:42:29;;;;;;;12.55;11.85;;;;;;;;;;4968772;28;20270;-84
2023/03/14 15:44:58;;;;;;;13.25;12.25;;;;;;;;;;5006134;28;20188;-87
2023/03/14 15:47:28;;;;;;;13.85;12.80;;;;;;;;;;4988346;28;20282;-87
2023/03/14 16:09:07;;;;;;;14.88;13.00;;;;;;;;;;4887303;29;20260;-90